createdAt,value
2018-06-12T00:02:19.468Z,5.67
2018-06-12T00:04:47.708Z,5.37
2018-06-12T00:07:15.928Z,5.73
2018-06-12T00:09:44.133Z,5.63
2018-06-12T00:12:12.345Z,6.03
2018-06-12T00:14:40.546Z,5.47
2018-06-12T00:17:08.780Z,5.63
2018-06-12T00:19:36.996Z,5.10
2018-06-12T00:22:05.233Z,5.23
2018-06-12T00:24:33.430Z,5.60
2018-06-12T00:27:01.668Z,5.27
2018-06-12T00:29:29.884Z,5.43
2018-06-12T00:31:58.131Z,5.50
2018-06-12T00:34:26.354Z,5.30
2018-06-12T00:36:54.619Z,4.77
2018-06-12T00:39:22.818Z,4.90
2018-06-12T00:41:51.035Z,5.00
2018-06-12T00:44:19.284Z,5.23
2018-06-12T00:46:47.568Z,5.73
2018-06-12T00:49:15.789Z,4.87
2018-06-12T00:51:44.024Z,4.90
2018-06-12T00:54:12.243Z,5.33
2018-06-12T00:56:51.760Z,5.17
2018-06-12T00:59:20.037Z,5.47
2018-06-12T01:01:48.268Z,4.93
2018-06-12T01:04:16.527Z,5.30
2018-06-12T01:06:44.740Z,5.27
2018-06-12T01:09:12.968Z,5.37
2018-06-12T01:11:41.171Z,5.40
2018-06-12T01:14:09.840Z,5.57
2018-06-12T01:16:38.060Z,6.07
2018-06-12T01:19:06.283Z,5.73
2018-06-12T01:21:34.487Z,6.00
2018-06-12T01:24:02.479Z,5.53
2018-06-12T01:26:30.723Z,6.43
2018-06-12T01:28:58.937Z,6.17
2018-06-12T01:31:27.164Z,5.43
2018-06-12T01:33:55.364Z,5.80
2018-06-12T01:36:23.583Z,6.17
2018-06-12T01:38:51.775Z,5.97
2018-06-12T01:41:19.984Z,6.07
2018-06-12T01:43:47.996Z,5.77
2018-06-12T01:46:17.094Z,6.20
2018-06-12T01:48:45.302Z,6.00
2018-06-12T01:51:13.529Z,5.73
2018-06-12T01:53:41.749Z,6.23
2018-06-12T01:56:09.965Z,6.00
2018-06-12T01:58:38.185Z,5.83
2018-06-12T02:01:06.403Z,5.70
2018-06-12T02:03:34.628Z,6.30
2018-06-12T02:06:02.863Z,6.57
2018-06-12T02:08:31.065Z,6.67
2018-06-12T02:10:59.263Z,6.70
2018-06-12T02:13:27.492Z,6.63
2018-06-12T02:15:55.679Z,6.33
2018-06-12T02:18:23.899Z,6.43
2018-06-12T02:20:52.127Z,6.93
2018-06-12T02:23:20.348Z,6.03
2018-06-12T02:25:48.550Z,6.33
2018-06-12T02:28:16.792Z,6.40
2018-06-12T02:30:45.012Z,6.43
2018-06-12T02:33:13.241Z,6.33
2018-06-12T02:35:41.444Z,6.67
2018-06-12T02:38:09.864Z,7.10
2018-06-12T02:40:38.063Z,6.50
2018-06-12T02:43:06.284Z,6.30
2018-06-12T02:45:34.498Z,6.67
2018-06-12T02:48:02.752Z,6.43
2018-06-12T02:50:30.965Z,6.27
2018-06-12T02:52:59.170Z,7.07
2018-06-12T02:55:27.403Z,6.70
2018-06-12T02:57:55.637Z,6.90
2018-06-12T03:00:23.877Z,6.80
2018-06-12T03:02:52.102Z,6.50
2018-06-12T03:05:20.329Z,6.23
2018-06-12T03:07:48.539Z,6.87
2018-06-12T03:10:16.775Z,6.57
2018-06-12T03:12:45.008Z,6.90
2018-06-12T03:15:13.234Z,7.00
2018-06-12T03:17:41.444Z,6.43
2018-06-12T03:20:09.944Z,6.47
2018-06-12T03:22:38.152Z,6.63
2018-06-12T03:25:06.383Z,6.77
2018-06-12T03:27:34.613Z,6.80
2018-06-12T03:30:02.841Z,5.67
2018-06-12T03:32:31.044Z,6.20
2018-06-12T03:34:59.254Z,6.23
2018-06-12T03:37:27.460Z,5.87
2018-06-12T03:39:55.717Z,6.50
2018-06-12T03:42:23.917Z,5.63
2018-06-12T03:44:52.152Z,5.57
2018-06-12T03:47:20.390Z,5.67
2018-06-12T03:49:48.600Z,4.97
2018-06-12T03:52:23.335Z,5.23
2018-06-12T03:54:51.822Z,5.10
2018-06-12T03:57:20.040Z,5.20
2018-06-12T03:59:48.235Z,4.33
2018-06-12T04:02:16.452Z,4.40
2018-06-12T04:04:44.708Z,4.70
2018-06-12T04:07:12.924Z,4.30
2018-06-12T04:09:41.122Z,4.53
2018-06-12T04:12:09.384Z,4.60
2018-06-12T04:14:37.591Z,4.50
2018-06-12T04:17:05.936Z,4.07
2018-06-12T04:19:35.623Z,4.57
2018-06-12T04:22:03.852Z,4.47
2018-06-12T04:24:32.083Z,5.00
2018-06-12T04:27:00.297Z,4.57
2018-06-12T04:29:28.522Z,4.10
2018-06-12T04:31:56.718Z,4.00
2018-06-12T04:34:24.959Z,4.00
2018-06-12T04:36:53.187Z,4.57
2018-06-12T04:39:21.788Z,4.03
2018-06-12T04:41:49.991Z,4.53
2018-06-12T04:44:18.215Z,4.40
2018-06-12T04:46:46.435Z,4.77
2018-06-12T04:49:14.692Z,4.43
2018-06-12T04:51:42.916Z,4.10
2018-06-12T04:54:11.172Z,4.43
2018-06-12T04:56:39.411Z,4.87
2018-06-12T04:59:07.635Z,4.57
2018-06-12T05:01:35.839Z,4.30
2018-06-12T05:04:04.156Z,4.40
2018-06-12T05:06:32.387Z,4.77
2018-06-12T05:09:00.584Z,4.77
2018-06-12T05:11:28.806Z,5.33
2018-06-12T05:13:57.011Z,4.77
2018-06-12T05:16:25.244Z,4.63
2018-06-12T05:18:53.449Z,4.27
2018-06-12T05:21:21.675Z,4.10
2018-06-12T05:23:49.866Z,4.00
2018-06-12T05:26:18.076Z,4.47
2018-06-12T05:28:46.364Z,4.50
2018-06-12T05:31:14.600Z,4.40
2018-06-12T05:33:43.145Z,4.73
2018-06-12T05:36:11.388Z,4.10
2018-06-12T05:38:39.595Z,4.50
2018-06-12T05:41:07.826Z,4.00
2018-06-12T05:43:36.012Z,3.90
2018-06-12T05:46:04.323Z,3.63
2018-06-12T05:48:32.540Z,4.43
2018-06-12T05:51:00.759Z,3.97
2018-06-12T05:53:28.968Z,3.60
2018-06-12T05:55:57.183Z,3.83
2018-06-12T05:58:25.380Z,4.30
2018-06-12T06:00:53.603Z,4.57
2018-06-12T06:03:21.814Z,4.60
2018-06-12T06:05:50.060Z,4.77
2018-06-12T06:08:18.255Z,4.77
2018-06-12T06:10:46.824Z,4.63
2018-06-12T06:13:15.055Z,5.03
2018-06-12T06:15:43.039Z,5.00
2018-06-12T06:18:11.249Z,4.97
2018-06-12T06:20:39.457Z,5.10
2018-06-12T06:23:07.700Z,5.47
2018-06-12T06:25:35.891Z,5.10
2018-06-12T06:28:04.167Z,4.63
2018-06-12T06:30:32.386Z,5.17
2018-06-12T06:33:00.631Z,4.77
2018-06-12T06:35:28.844Z,4.43
2018-06-12T06:37:57.076Z,4.23
2018-06-12T06:40:25.277Z,4.20
2018-06-12T06:42:53.500Z,4.60
2018-06-12T06:45:21.730Z,4.37
2018-06-12T06:47:49.958Z,4.10
2018-06-12T06:50:18.177Z,3.87
2018-06-12T06:52:46.450Z,3.60
2018-06-12T06:55:14.664Z,4.50
2018-06-12T06:57:42.924Z,4.17
2018-06-12T07:00:11.126Z,3.53
2018-06-12T07:02:39.396Z,4.50
2018-06-12T07:05:07.618Z,4.20
2018-06-12T07:07:35.826Z,3.93
2018-06-12T07:10:04.056Z,4.07
2018-06-12T07:12:32.284Z,4.17
2018-06-12T07:15:00.569Z,4.00
2018-06-12T07:17:28.761Z,4.37
2018-06-12T07:19:56.993Z,4.07
2018-06-12T07:22:25.798Z,4.23
2018-06-12T07:24:54.032Z,4.63
2018-06-12T07:27:22.341Z,4.17
2018-06-12T07:29:50.564Z,4.47
2018-06-12T07:32:18.822Z,4.33
2018-06-12T07:34:47.047Z,4.20
2018-06-12T07:37:15.260Z,3.17
2018-06-12T07:39:43.487Z,3.00
2018-06-12T07:42:11.733Z,3.00
2018-06-12T07:44:39.950Z,3.60
2018-06-12T07:47:08.165Z,3.13
2018-06-12T07:49:36.175Z,2.77
2018-06-12T07:52:04.459Z,3.20
2018-06-12T07:54:32.677Z,3.40
2018-06-12T07:57:00.675Z,2.70
2018-06-12T07:59:29.277Z,3.00
2018-06-12T08:01:57.502Z,3.23
2018-06-12T08:04:25.498Z,2.70
2018-06-12T08:06:53.758Z,2.97
2018-06-12T08:09:21.947Z,2.80
2018-06-12T08:11:50.189Z,3.30
2018-06-12T08:14:18.419Z,3.70
2018-06-12T08:16:46.652Z,3.20
2018-06-12T08:19:14.854Z,3.20
2018-06-12T08:21:43.085Z,2.90
2018-06-12T08:24:11.321Z,2.40
2018-06-12T08:26:39.577Z,2.70
2018-06-12T08:29:07.818Z,3.00
2018-06-12T08:31:36.041Z,2.90
2018-06-12T08:34:04.235Z,2.80
2018-06-12T08:36:32.632Z,2.77
2018-06-12T08:39:00.868Z,2.93
2018-06-12T08:41:29.077Z,2.87
2018-06-12T08:43:57.297Z,2.93
2018-06-12T08:46:25.615Z,3.63
2018-06-12T08:48:53.798Z,3.00
2018-06-12T08:51:22.074Z,2.80
2018-06-12T08:53:50.288Z,2.70
2018-06-12T08:56:18.529Z,2.77
2018-06-12T08:58:46.736Z,2.53
2018-06-12T09:01:14.948Z,2.60
2018-06-12T09:03:43.260Z,3.37
2018-06-12T09:06:11.236Z,3.10
2018-06-12T09:08:39.488Z,3.30
2018-06-12T09:11:07.702Z,2.83
2018-06-12T09:13:35.947Z,3.20
2018-06-12T09:16:04.147Z,2.70
2018-06-12T09:18:32.388Z,3.27
2018-06-12T09:21:00.620Z,3.43
2018-06-12T09:23:28.836Z,4.90
2018-06-12T09:25:57.048Z,3.63
2018-06-12T09:28:25.277Z,3.40
2018-06-12T09:30:53.483Z,3.20
2018-06-12T09:33:21.704Z,3.50
2018-06-12T09:35:49.916Z,3.13
2018-06-12T09:38:18.147Z,3.90
2018-06-12T09:40:46.351Z,3.70
2018-06-12T09:43:14.590Z,4.20
2018-06-12T09:45:42.796Z,4.00
2018-06-12T09:48:11.021Z,4.23
2018-06-12T09:50:39.252Z,3.47
2018-06-12T09:53:07.503Z,4.10
2018-06-12T09:55:35.720Z,3.63
2018-06-12T09:58:04.401Z,3.53
2018-06-12T10:00:37.992Z,4.07
2018-06-12T10:03:06.312Z,4.47
2018-06-12T10:05:34.507Z,4.47
2018-06-12T10:08:02.735Z,3.77
2018-06-12T10:10:30.950Z,4.53
2018-06-12T10:12:59.200Z,5.03
2018-06-12T10:15:27.428Z,4.57
2018-06-12T10:17:55.692Z,4.73
2018-06-12T10:20:23.932Z,4.20
2018-06-12T10:22:52.208Z,4.20
2018-06-12T10:25:20.423Z,3.93
2018-06-12T10:27:48.651Z,3.33
2018-06-12T10:30:16.878Z,2.80
2018-06-12T10:32:44.864Z,3.20
2018-06-12T10:35:13.092Z,3.80
2018-06-12T10:37:41.291Z,3.10
2018-06-12T10:40:09.278Z,2.90
2018-06-12T10:42:37.501Z,2.70
2018-06-12T10:45:05.731Z,3.20
2018-06-12T10:47:33.965Z,3.10
2018-06-12T10:50:02.199Z,3.00
2018-06-12T10:52:30.408Z,3.27
2018-06-12T10:54:58.624Z,3.47
2018-06-12T10:57:26.837Z,3.00
2018-06-12T10:59:55.108Z,2.90
2018-06-12T11:02:23.329Z,2.67
2018-06-12T11:04:51.590Z,3.13
2018-06-12T11:07:19.792Z,2.87
2018-06-12T11:09:48.012Z,3.07
2018-06-12T11:12:16.240Z,3.03
2018-06-12T11:14:44.484Z,2.80
2018-06-12T11:17:12.675Z,2.70
2018-06-12T11:19:40.914Z,3.10
2018-06-12T11:22:09.129Z,3.03
2018-06-12T11:24:37.350Z,3.17
2018-06-12T11:27:05.570Z,2.70
2018-06-12T11:29:33.785Z,2.60
2018-06-12T11:32:01.982Z,2.80
2018-06-12T11:34:30.231Z,2.60
2018-06-12T11:36:58.424Z,2.57
2018-06-12T11:39:26.623Z,3.10
2018-06-12T11:41:54.842Z,2.57
2018-06-12T11:44:23.098Z,2.40
2018-06-12T11:46:51.322Z,3.10
2018-06-12T11:49:19.545Z,2.40
2018-06-12T11:51:47.775Z,2.40
2018-06-12T11:54:15.979Z,2.60
2018-06-12T11:56:44.196Z,2.63
2018-06-12T11:59:13.040Z,2.43
2018-06-12T12:01:41.322Z,2.57
2018-06-12T12:04:09.562Z,2.83
2018-06-12T12:06:37.852Z,2.53
2018-06-12T12:09:08.343Z,2.80
2018-06-12T12:11:37.024Z,3.30
2018-06-12T12:14:05.565Z,3.10
2018-06-12T12:16:33.561Z,3.30
2018-06-12T12:19:01.768Z,2.70
2018-06-12T12:21:29.991Z,2.97
2018-06-12T12:23:58.201Z,2.47
2018-06-12T12:26:26.432Z,3.00
2018-06-12T12:28:54.647Z,2.90
2018-06-12T12:31:23.153Z,2.80
2018-06-12T12:33:51.363Z,2.50
2018-06-12T12:36:19.612Z,2.93
2018-06-12T12:38:47.820Z,2.50
2018-06-12T12:41:16.066Z,2.93
2018-06-12T12:43:44.300Z,3.00
2018-06-12T12:46:12.491Z,3.10
2018-06-12T12:48:40.720Z,3.10
2018-06-12T12:51:08.945Z,2.90
2018-06-12T12:53:37.152Z,3.13
2018-06-12T12:56:05.172Z,2.80
2018-06-12T12:58:33.452Z,2.70
2018-06-12T13:01:01.663Z,3.03
2018-06-12T13:03:29.674Z,3.67
2018-06-12T13:05:57.898Z,3.20
2018-06-12T13:08:26.113Z,3.53
2018-06-12T13:10:54.311Z,3.27
2018-06-12T13:13:22.541Z,2.80
2018-06-12T13:15:50.747Z,3.33
2018-06-12T13:18:19.013Z,3.00
2018-06-12T13:20:47.233Z,3.20
2018-06-12T13:23:15.478Z,3.00
2018-06-12T13:25:43.716Z,3.13
2018-06-12T13:28:11.980Z,3.50
2018-06-12T13:30:39.952Z,3.07
2018-06-12T13:33:08.416Z,3.00
2018-06-12T13:35:36.391Z,3.17
2018-06-12T13:38:04.791Z,3.87
2018-06-12T13:40:33.395Z,2.97
2018-06-12T13:43:02.084Z,3.30
2018-06-12T13:45:30.288Z,3.13
2018-06-12T13:47:58.622Z,3.03
2018-06-12T13:50:26.851Z,3.53
2018-06-12T13:52:55.068Z,2.97
2018-06-12T13:55:23.305Z,2.93
2018-06-12T13:57:51.532Z,3.00
2018-06-12T14:00:19.733Z,2.67
2018-06-12T14:02:47.954Z,3.00
2018-06-12T14:05:16.847Z,2.70
2018-06-12T14:07:45.108Z,2.60
2018-06-12T14:10:13.319Z,2.60
2018-06-12T14:12:41.547Z,3.20
2018-06-12T14:15:09.780Z,2.60
2018-06-12T14:17:37.984Z,2.77
2018-06-12T14:20:06.025Z,2.60
2018-06-12T14:22:34.245Z,3.00
2018-06-12T14:25:02.475Z,2.73
2018-06-12T14:27:30.704Z,2.60
2018-06-12T14:29:58.936Z,3.00
2018-06-12T14:32:27.153Z,2.83
2018-06-12T14:34:55.397Z,2.60
2018-06-12T14:37:23.382Z,3.07
2018-06-12T14:39:51.628Z,2.80
2018-06-12T14:42:19.828Z,2.50
2018-06-12T14:44:48.069Z,2.60
2018-06-12T14:47:16.280Z,3.17
2018-06-12T14:49:44.500Z,2.90
2018-06-12T14:52:12.717Z,3.17
2018-06-12T14:54:40.956Z,3.30
2018-06-12T14:57:09.337Z,3.20
2018-06-12T14:59:37.578Z,3.20
2018-06-12T15:02:05.812Z,2.93
2018-06-12T15:04:34.076Z,2.90
2018-06-12T15:07:02.107Z,3.10
2018-06-12T15:09:30.340Z,3.20
2018-06-12T15:11:58.617Z,2.97
2018-06-12T15:14:26.867Z,2.93
2018-06-12T15:16:55.089Z,3.13
2018-06-12T15:19:23.313Z,3.47
2018-06-12T15:21:51.508Z,2.90
2018-06-12T15:24:19.715Z,3.20
2018-06-12T15:26:47.931Z,2.97
2018-06-12T15:29:16.159Z,3.33
2018-06-12T15:31:44.396Z,2.70
2018-06-12T15:34:12.391Z,2.90
2018-06-12T15:36:40.652Z,2.93
2018-06-12T15:39:08.860Z,2.73
2018-06-12T15:41:37.188Z,2.83
2018-06-12T15:44:05.433Z,3.20
2018-06-12T15:46:33.655Z,2.63
2018-06-12T15:49:01.893Z,2.90
2018-06-12T15:51:30.142Z,3.20
2018-06-12T15:53:58.356Z,2.63
2018-06-12T15:56:26.635Z,2.63
2018-06-12T15:58:54.636Z,3.00
2018-06-12T16:01:22.848Z,2.70
2018-06-12T16:03:51.068Z,3.30
2018-06-12T16:06:19.300Z,2.87
2018-06-12T16:08:47.628Z,2.70
2018-06-12T16:11:15.856Z,2.80
2018-06-12T16:13:44.076Z,2.77
2018-06-12T16:16:12.316Z,2.83
2018-06-12T16:18:40.513Z,2.97
2018-06-12T16:21:08.792Z,2.70
2018-06-12T16:23:37.008Z,2.77
2018-06-12T16:26:05.291Z,2.83
2018-06-12T16:28:33.479Z,2.60
2018-06-12T16:31:01.711Z,2.80
2018-06-12T16:33:29.925Z,3.07
2018-06-12T16:35:58.166Z,2.50
2018-06-12T16:38:26.383Z,2.90
2018-06-12T16:40:54.628Z,2.40
2018-06-12T16:43:31.694Z,2.90
2018-06-12T16:45:59.961Z,2.67
2018-06-12T16:48:28.192Z,2.53
2018-06-12T16:50:56.441Z,2.53
2018-06-12T16:53:24.676Z,2.30
2018-06-12T16:55:52.880Z,2.30
2018-06-12T16:58:21.127Z,2.47
2018-06-12T17:00:49.330Z,2.33
2018-06-12T17:03:17.584Z,2.20
2018-06-12T17:05:45.781Z,1.90
2018-06-12T17:08:14.015Z,2.50
2018-06-12T17:10:42.225Z,2.10
2018-06-12T17:13:10.443Z,2.03
2018-06-12T17:15:38.661Z,1.90
2018-06-12T17:18:06.899Z,2.10
2018-06-12T17:20:35.107Z,2.27
2018-06-12T17:23:03.336Z,2.80
2018-06-12T17:25:31.563Z,2.00
2018-06-12T17:27:59.797Z,2.00
2018-06-12T17:30:28.055Z,2.10
2018-06-12T17:32:56.051Z,2.10
2018-06-12T17:35:24.261Z,1.90
2018-06-12T17:37:52.500Z,2.10
2018-06-12T17:40:20.711Z,2.03
2018-06-12T17:42:48.972Z,1.90
2018-06-12T17:45:17.172Z,1.97
2018-06-12T17:47:45.388Z,1.70
2018-06-12T17:50:13.601Z,2.10
2018-06-12T17:52:41.828Z,2.40
2018-06-12T17:55:10.048Z,2.30
2018-06-12T17:57:38.291Z,1.80
2018-06-12T18:00:06.501Z,2.00
2018-06-12T18:02:34.741Z,1.93
2018-06-12T18:05:02.975Z,2.00
2018-06-12T18:07:31.199Z,2.10
2018-06-12T18:09:59.428Z,2.20
2018-06-12T18:12:27.668Z,2.20
2018-06-12T18:14:55.907Z,2.27
2018-06-12T18:17:24.168Z,2.70
2018-06-12T18:19:57.647Z,2.60
2018-06-12T18:22:25.857Z,2.60
2018-06-12T18:24:54.143Z,2.00
2018-06-12T18:27:22.327Z,2.20
2018-06-12T18:29:50.553Z,2.00
2018-06-12T18:32:18.788Z,2.17
2018-06-12T18:34:47.028Z,2.27
2018-06-12T18:37:15.267Z,2.00
2018-06-12T18:39:43.508Z,1.90
2018-06-12T18:42:11.725Z,1.90
2018-06-12T18:44:39.998Z,2.10
2018-06-12T18:47:07.981Z,2.40
2018-06-12T18:49:36.201Z,2.47
2018-06-12T18:52:04.425Z,2.00
2018-06-12T18:54:32.655Z,1.80
2018-06-12T18:57:00.881Z,1.93
2018-06-12T18:59:29.103Z,2.07
2018-06-12T19:01:57.344Z,2.30
2018-06-12T19:04:25.595Z,2.10
2018-06-12T19:06:53.797Z,2.27
2018-06-12T19:09:22.034Z,2.30
2018-06-12T19:11:50.277Z,2.60
2018-06-12T19:14:18.501Z,2.20
2018-06-12T19:16:46.704Z,2.57
2018-06-12T19:19:14.932Z,2.60
2018-06-12T19:21:43.132Z,2.83
2018-06-12T19:24:11.335Z,2.90
2018-06-12T19:26:39.647Z,2.87
2018-06-12T19:29:07.784Z,2.63
2018-06-12T19:31:36.201Z,2.80
2018-06-12T19:34:04.469Z,3.50
2018-06-12T19:36:32.514Z,2.90
2018-06-12T19:39:04.663Z,2.80
2018-06-12T19:41:32.891Z,2.70
2018-06-12T19:44:01.107Z,2.40
2018-06-12T19:46:29.335Z,2.77
2018-06-12T19:48:57.668Z,3.03
2018-06-12T19:51:25.918Z,2.80
2018-06-12T19:53:54.131Z,3.00
2018-06-12T19:56:22.348Z,3.00
2018-06-12T19:58:50.545Z,2.97
2018-06-12T20:01:18.759Z,2.73
2018-06-12T20:03:46.978Z,2.63
2018-06-12T20:06:15.245Z,3.30
2018-06-12T20:08:43.403Z,3.20
2018-06-12T20:11:11.714Z,3.33
2018-06-12T20:13:40.067Z,3.37
2018-06-12T20:16:08.301Z,3.27
2018-06-12T20:18:36.516Z,3.43
2018-06-12T20:21:04.744Z,3.17
2018-06-12T20:23:32.952Z,3.40
2018-06-12T20:26:01.167Z,3.47
2018-06-12T20:28:29.390Z,3.17
2018-06-12T20:30:57.375Z,3.23
2018-06-12T20:33:25.563Z,3.40
2018-06-12T20:35:53.792Z,3.40
2018-06-12T20:38:22.008Z,3.67
2018-06-12T20:40:50.232Z,3.40
2018-06-12T20:43:18.465Z,3.37
2018-06-12T20:45:46.689Z,3.37
2018-06-12T20:48:14.970Z,3.23
2018-06-12T20:50:43.217Z,3.50
2018-06-12T20:53:11.451Z,3.80
2018-06-12T20:55:39.660Z,3.73
2018-06-12T20:58:07.887Z,3.90
2018-06-12T21:00:36.130Z,3.80
2018-06-12T21:03:04.375Z,3.90
2018-06-12T21:05:32.604Z,3.87
2018-06-12T21:08:00.860Z,3.87
2018-06-12T21:10:29.067Z,3.97
2018-06-12T21:12:57.283Z,3.37
2018-06-12T21:15:25.513Z,3.47
2018-06-12T21:17:53.759Z,3.80
2018-06-12T21:20:21.960Z,3.90
2018-06-12T21:22:50.176Z,3.83
2018-06-12T21:25:18.384Z,3.83
2018-06-12T21:27:46.377Z,3.80
2018-06-12T21:30:14.583Z,4.17
2018-06-12T21:32:42.811Z,4.00
2018-06-12T21:35:11.023Z,3.70
2018-06-12T21:37:39.260Z,3.80
2018-06-12T21:40:07.491Z,4.33
2018-06-12T21:42:35.715Z,3.80
2018-06-12T21:45:03.936Z,3.67
2018-06-12T21:47:32.172Z,3.70
2018-06-12T21:50:00.377Z,3.80
2018-06-12T21:52:28.613Z,3.80
2018-06-12T21:54:56.820Z,3.63
2018-06-12T21:57:25.097Z,3.77
2018-06-12T21:59:53.352Z,3.73
2018-06-12T22:02:21.581Z,3.80
2018-06-12T22:04:49.942Z,3.67
2018-06-12T22:07:18.115Z,4.47
2018-06-12T22:09:46.374Z,4.20
2018-06-12T22:12:14.605Z,3.97
2018-06-12T22:14:42.816Z,4.77
2018-06-12T22:17:11.008Z,4.37
2018-06-12T22:19:39.272Z,3.70
2018-06-12T22:22:07.503Z,3.80
2018-06-12T22:24:35.717Z,3.77
2018-06-12T22:27:03.932Z,3.47
2018-06-12T22:29:32.151Z,3.50
2018-06-12T22:32:00.406Z,4.30
2018-06-12T22:34:28.657Z,4.00
2018-06-12T22:36:56.681Z,3.47
2018-06-12T22:39:24.927Z,3.80
2018-06-12T22:41:53.734Z,3.67
2018-06-12T22:44:21.978Z,3.63
2018-06-12T22:46:50.258Z,3.83
2018-06-12T22:49:18.471Z,3.90
2018-06-12T22:51:46.702Z,3.77
2018-06-12T22:54:14.946Z,3.60
2018-06-12T22:56:43.203Z,3.50
2018-06-12T22:59:11.437Z,3.60
2018-06-12T23:01:39.712Z,3.40
2018-06-12T23:04:07.988Z,3.63
2018-06-12T23:06:36.589Z,3.50
2018-06-12T23:09:07.331Z,3.53
2018-06-12T23:11:35.552Z,3.43
2018-06-12T23:14:03.594Z,3.30
2018-06-12T23:16:31.830Z,3.57
2018-06-12T23:19:00.061Z,3.83
2018-06-12T23:21:45.671Z,3.50
2018-06-12T23:24:14.119Z,3.70
2018-06-12T23:26:42.380Z,3.43
2018-06-12T23:29:10.608Z,3.30
2018-06-12T23:31:38.936Z,3.50
2018-06-12T23:34:07.151Z,3.50
2018-06-12T23:36:35.396Z,3.80
2018-06-12T23:39:04.679Z,3.50
2018-06-12T23:41:32.932Z,3.20
2018-06-12T23:44:01.180Z,3.40
2018-06-12T23:46:29.439Z,3.00
2018-06-12T23:48:57.674Z,3.30
2018-06-12T23:51:25.907Z,3.40
2018-06-12T23:53:54.136Z,3.33
2018-06-12T23:56:22.393Z,3.40
2018-06-12T23:58:50.636Z,3.30
